Flight Track Log - Related Links

Times and Time Zones

All times are in EST time to prevent confusion due to time zone crossing. See the UPS1331 flight status page for this flight to view local times or setup timezone preferences in your user account.

Time Position Orientation Groundspeed Altitude Reporting Facility
EST Latitude Longitude Course Direction KTS MPH feet Rate Location/Type
Tue 10:10:11 PM 25.8050 -80.3030 North  Level FlightAware ADS-B
Tue 10:12:00 PM 25.9847 -80.3472 340° North  Level FlightAware Approximate
Tue 10:13:00 PM 26.0829 -80.3832 343° North  Level FlightAware Approximate
Tue 10:14:00 PM 26.1820 -80.4162 343° North  Level FlightAware Approximate
Tue 10:15:43 PM 25.8010 -80.2820 90° East 163 188 100  Level FlightAware ADS-B
Tue 10:15:59 PM 25.8020 -80.2700 85° East 156 180 900 2,634 Climbing FlightAware ADS-B
Tue 10:16:24 PM 25.8020 -80.2460 90° East 186 214 1,900 1,765 Climbing FlightAware ADS-B
Tue 10:16:50 PM 25.8030 -80.2190 88° East 230 265 2,400 2,000 Climbing FlightAware ADS-B
Tue 10:17:09 PM 25.8030 -80.1940 90° East 242 278 3,400 2,632 Climbing FlightAware ADS-B
Tue 10:17:47 PM 25.8260 -80.1580 55° Northeast 262 302 4,900 2,647 Climbing FlightAware ADS-B
Tue 10:18:17 PM 25.8640 -80.1610 356° North 260 299 6,400 2,353 Climbing FlightAware ADS-B
Tue 10:18:38 PM 25.8870 -80.1720 337° Northwest 272 313 6,900 638 Climbing FlightAware ADS-B
Tue 10:19:04 PM 25.9150 -80.1910 329° Northwest 272 313 6,900 115 Level FlightAware ADS-B
Tue 10:19:30 PM 25.9420 -80.2110 326° Northwest 272 313 7,000 1,176 Climbing FlightAware ADS-B
Tue 10:19:55 PM 25.9680 -80.2300 327° Northwest 274 315 7,900 2,426 Climbing FlightAware ADS-B
Tue 10:20:17 PM 25.9910 -80.2480 325° Northwest 274 315 8,900 2,507 Climbing FlightAware ADS-B
Tue 10:21:02 PM 26.0420 -80.2870 326° Northwest 312 359 10,700 2,022 Climbing FlightAware ADS-B
Tue 10:21:49 PM 26.1030 -80.3330 326° Northwest 372 428 12,000 2,516 Climbing FlightAware ADS-B
Tue 10:22:35 PM 26.1720 -80.3860 325° Northwest 395 455 14,600 3,398 Climbing FlightAware ADS-B
Tue 10:23:42 PM 26.2820 -80.4540 331° Northwest 421 484 18,400 3,203 Climbing FlightAware ADS-B
Tue 10:24:33 PM 26.3760 -80.4980 337° Northwest 436 502 20,900 2,842 Climbing FlightAware ADS-B
Tue 10:25:36 PM 26.4940 -80.5550 337° Northwest 441 507 23,800 2,645 Climbing FlightAware ADS-B
Tue 10:26:06 PM 26.5530 -80.5820 338° Northwest 456 525 25,000 2,157 Climbing FlightAware ADS-B
Tue 10:27:05 PM 26.6738 -80.6399 337° Northwest 477 549 27,000 2,143 Climbing FlightAware ADS-B
Tue 10:27:44 PM 26.7514 -80.6763 337° Northwest 483 556 28,500 2,535 Climbing FlightAware ADS-B
Tue 10:28:16 PM 26.8117 -80.7012 340° North 481 554 30,000 2,819 Climbing FlightAware ADS-B
Tue 10:29:07 PM 26.9268 -80.7434 342° North 470 541 32,400 2,500 Climbing FlightAware ADS-B
Tue 10:29:52 PM 27.0170 -80.7760 342° North 459 528 34,000 1,625 Climbing FlightAware ADS-B
Tue 10:30:43 PM 27.1210 -80.8140 342° North 454 522 35,000 612 Climbing FlightAware ADS-B
Tue 10:31:30 PM 27.2150 -80.8480 342° North 457 526 35,000  Level FlightAware ADS-B
Tue 10:32:11 PM 27.2980 -80.8790 342° North 457 526 35,000  Level FlightAware ADS-B
Tue 10:32:58 PM 27.3920 -80.9130 342° North 457 526 35,000  Level FlightAware ADS-B
Tue 10:33:59 PM 27.5170 -80.9590 342° North 459 528 35,000 214 Level FlightAware ADS-B
Tue 10:34:50 PM 27.6243 -80.9984 342° North 458 527 35,400 1,098 Climbing FlightAware ADS-B
Tue 10:35:21 PM 27.6860 -81.0209 342° North 448 516 36,500 1,032 Climbing FlightAware ADS-B
Tue 10:36:23 PM 27.8050 -81.0650 342° North 434 499 37,000 385 Climbing FlightAware ADS-B
Tue 10:36:39 PM 27.8353 -81.0760 342° North 431 496 37,000  Level FlightAware ADS-B
Tue 10:37:11 PM 27.8960 -81.0990 342° North 430 495 37,000  Level FlightAware ADS-B
Tue 10:37:35 PM 27.9405 -81.1147 343° North 432 497 37,000  Level FlightAware ADS-B
Tue 10:38:26 PM 28.0371 -81.1498 342° North 435 501 37,000  Level FlightAware ADS-B
Tue 10:39:06 PM 28.1143 -81.1778 342° North 437 503 37,000  Level FlightAware ADS-B
Tue 10:39:40 PM 28.1808 -81.2022 342° North 438 504 37,000  Level FlightAware ADS-B
Tue 10:40:10 PM 28.2318 -81.2208 342° North 439 505 37,000  Level FlightAware ADS-B
Tue 10:40:41 PM 28.2996 -81.2455 342° North 441 507 37,000  Level FlightAware ADS-B
Tue 10:41:11 PM 28.3563 -81.2664 342° North 441 507 37,000  Level FlightAware ADS-B
Tue 10:41:41 PM 28.4136 -81.2874 342° North 441 507 37,000  Level FlightAware ADS-B
Tue 10:42:12 PM 28.4673 -81.3071 342° North 442 509 37,000  Level FlightAware ADS-B
Tue 10:42:42 PM 28.5337 -81.3315 342° North 442 509 37,000  Level FlightAware ADS-B
Tue 10:43:12 PM 28.5941 -81.3525 343° North 446 513 37,000  Level FlightAware ADS-B
Tue 10:43:44 PM 28.6576 -81.3727 344° North 446 513 37,000  Level FlightAware ADS-B (VIDP / DEL)
Tue 10:44:21 PM 28.7252 -81.3944 344° North 445 512 37,000  Level FlightAware ADS-B
Tue 10:44:53 PM 28.7859 -81.4143 344° North 445 512 37,000  Level FlightAware ADS-B (VIDP / DEL)
Tue 10:45:23 PM 28.8465 -81.4343 344° North 445 512 37,000  Level FlightAware ADS-B (VIDP / DEL)
Tue 10:45:59 PM 28.9265 -81.4601 344° North 447 514 37,000  Level FlightAware ADS-B
Tue 10:46:40 PM 29.0055 -81.4854 344° North 446 513 37,000  Level FlightAware ADS-B
Tue 10:47:24 PM 29.0950 -81.5140 344° North 447 514 37,000  Level FlightAware ADS-B
Tue 10:47:37 PM 29.1178 -81.5218 343° North 447 514 37,000  Level FlightAware ADS-B (VIDP / DEL)
Tue 10:48:16 PM 29.1960 -81.5470 344° North 447 514 37,000  Level FlightAware ADS-B
Tue 10:49:09 PM 29.3030 -81.5820 344° North 448 516 37,000  Level FlightAware ADS-B
Tue 10:49:12 PM 29.3049 -81.5826 345° North 449 517 37,000  Level FlightAware ADS-B (VIDP / DEL)
Tue 10:50:13 PM 29.4300 -81.6230 344° North 450 518 37,000  Level FlightAware ADS-B
Tue 10:51:09 PM 29.5430 -81.6600 344° North 449 517 37,000  Level FlightAware ADS-B
Tue 10:51:46 PM 29.6170 -81.6840 344° North 449 517 37,000  Level FlightAware ADS-B
Tue 10:52:32 PM 29.7080 -81.7140 344° North 449 517 37,000  Level FlightAware ADS-B
Tue 10:53:00 PM 29.7660 -81.7330 344° North 448 516 37,000  Level FlightAware ADS-B
Tue 10:53:52 PM 29.8700 -81.7670 344° North 448 516 37,000  Level FlightAware ADS-B
Tue 10:54:20 PM 29.9260 -81.7860 344° North 448 516 37,000  Level FlightAware ADS-B
Tue 10:55:12 PM 30.0300 -81.8200 344° North 447 514 37,000  Level FlightAware ADS-B
Tue 10:55:43 PM 30.0910 -81.8400 344° North 448 516 37,000  Level FlightAware ADS-B
Tue 10:56:16 PM 30.1560 -81.8620 344° North 446 513 37,000  Level FlightAware ADS-B
Tue 10:56:48 PM 30.2140 -81.8810 344° North 446 513 37,000  Level FlightAware ADS-B
Tue 10:57:23 PM 30.2870 -81.9050 344° North 444 511 37,000  Level FlightAware ADS-B
Tue 10:58:15 PM 30.3900 -81.9390 344° North 441 507 37,000  Level FlightAware ADS-B
Tue 10:58:50 PM 30.4610 -81.9630 344° North 440 506 37,000  Level FlightAware ADS-B
Tue 11:00:01 PM 30.5950 -82.0080 344° North 437 503 37,000  Level FlightAware ADS-B
Tue 11:00:53 PM 30.6990 -82.0420 344° North 435 501 37,000  Level FlightAware ADS-B
Tue 11:01:45 PM 30.7950 -82.0750 344° North 435 501 37,000  Level FlightAware ADS-B
Tue 11:02:32 PM 30.8890 -82.1060 344° North 434 499 37,000  Level FlightAware ADS-B
Tue 11:03:33 PM 31.0080 -82.1460 344° North 434 499 37,000  Level FlightAware ADS-B
Tue 11:04:23 PM 31.1030 -82.1780 344° North 433 498 37,000  Level FlightAware ADS-B
Tue 11:05:20 PM 31.2100 -82.2140 344° North 431 496 37,000  Level FlightAware ADS-B
Tue 11:05:52 PM 31.2740 -82.2360 344° North 430 495 37,000  Level FlightAware ADS-B
Tue 11:06:47 PM 31.3810 -82.2720 344° North 429 494 37,000  Level FlightAware ADS-B
Tue 11:07:34 PM 31.4710 -82.3050 343° North 421 484 37,000  Level FlightAware ADS-B
Tue 11:08:27 PM 31.5650 -82.3440 341° North 422 486 37,000  Level FlightAware ADS-B
Tue 11:09:19 PM 31.6610 -82.3820 341° North 424 488 37,000  Level FlightAware ADS-B
Tue 11:10:00 PM 31.7360 -82.4120 341° North 424 488 37,000  Level FlightAware ADS-B
Tue 11:10:45 PM 31.8250 -82.4470 342° North 423 487 37,000  Level FlightAware ADS-B
Tue 11:11:31 PM 31.9070 -82.4800 341° North 422 486 37,000  Level FlightAware ADS-B
Tue 11:12:14 PM 31.9870 -82.5120 341° North 421 484 37,000  Level FlightAware ADS-B
Tue 11:12:47 PM 32.0500 -82.5370 341° North 420 483 37,000  Level FlightAware ADS-B
Tue 11:13:42 PM 32.1510 -82.5780 341° North 418 481 37,000  Level FlightAware ADS-B
Tue 11:14:12 PM 32.2060 -82.6000 341° North 417 480 37,000  Level FlightAware ADS-B
Tue 11:14:55 PM 32.2850 -82.6320 341° North 416 479 37,000  Level FlightAware ADS-B
Tue 11:15:54 PM 32.3860 -82.6730 341° North 415 478 37,000  Level FlightAware ADS-B
Tue 11:16:40 PM 32.4710 -82.7070 341° North 415 478 37,000  Level FlightAware ADS-B
Tue 11:17:42 PM 32.5870 -82.7540 341° North 415 478 37,000  Level FlightAware ADS-B
Tue 11:18:31 PM 32.6780 -82.7910 341° North 415 478 37,000  Level FlightAware ADS-B
Tue 11:19:05 PM 32.7400 -82.8160 341° North 416 479 37,000  Level FlightAware ADS-B
Tue 11:19:56 PM 32.8310 -82.8530 341° North 416 479 37,000  Level FlightAware ADS-B
Tue 11:20:33 PM 32.8970 -82.8810 340° North 415 478 37,000  Level FlightAware ADS-B
Tue 11:21:24 PM 32.9920 -82.9200 341° North 413 475 37,000  Level FlightAware ADS-B
Tue 11:22:18 PM 33.0900 -82.9600 341° North 410 472 37,000  Level FlightAware ADS-B
Tue 11:22:47 PM 33.1400 -82.9800 341° North 410 472 37,000  Level FlightAware ADS-B
Tue 11:23:47 PM 33.2490 -83.0250 341° North 409 471 37,000  Level FlightAware ADS-B
Tue 11:24:39 PM 33.3420 -83.0640 341° North 409 471 37,000  Level FlightAware ADS-B
Tue 11:25:09 PM 33.3960 -83.0860 341° North 407 468 37,000  Level FlightAware ADS-B
Tue 11:26:02 PM 33.4890 -83.1250 341° North 405 466 37,000  Level FlightAware ADS-B
Tue 11:26:47 PM 33.5690 -83.1580 341° North 403 464 37,000  Level FlightAware ADS-B
Tue 11:27:46 PM 33.6720 -83.2010 341° North 400 460 37,000  Level FlightAware ADS-B
Tue 11:28:27 PM 33.7450 -83.2310 341° North 398 458 37,000  Level FlightAware ADS-B
Tue 11:29:22 PM 33.8400 -83.2710 341° North 399 459 37,000  Level FlightAware ADS-B
Tue 11:29:57 PM 33.9017 -83.2973 341° North 399 459 37,000  Level FlightAware ADS-B
Tue 11:30:28 PM 33.9557 -83.3201 341° North 401 461 37,000  Level FlightAware ADS-B
Tue 11:30:58 PM 34.0090 -83.3424 341° North 403 464 37,000  Level FlightAware ADS-B
Tue 11:31:29 PM 34.0626 -83.3652 341° North 403 464 37,000  Level FlightAware ADS-B
Tue 11:32:02 PM 34.1210 -83.3896 341° North 405 466 37,000  Level FlightAware ADS-B
Tue 11:32:33 PM 34.1769 -83.4132 341° North 405 466 37,000  Level FlightAware ADS-B
Tue 11:33:03 PM 34.2303 -83.4358 341° North 406 467 37,000  Level FlightAware ADS-B
Tue 11:33:34 PM 34.2846 -83.4588 341° North 408 470 37,000  Level FlightAware ADS-B
Tue 11:34:05 PM 34.3401 -83.4824 341° North 411 473 37,000  Level FlightAware ADS-B
Tue 11:34:38 PM 34.3989 -83.5074 341° North 412 474 37,000  Level FlightAware ADS-B
Tue 11:35:09 PM 34.4542 -83.5309 341° North 412 474 37,000  Level FlightAware ADS-B
Tue 11:35:39 PM 34.5098 -83.5546 341° North 415 478 37,000  Level FlightAware ADS-B
Tue 11:36:09 PM 34.5640 -83.5777 341° North 416 479 37,000  Level FlightAware ADS-B
Tue 11:36:41 PM 34.6218 -83.6024 341° North 416 479 37,000  Level FlightAware ADS-B
Tue 11:37:12 PM 34.6778 -83.6264 341° North 415 478 37,000  Level FlightAware ADS-B
Tue 11:37:42 PM 34.7322 -83.6497 341° North 414 476 37,000  Level FlightAware ADS-B
Tue 11:38:13 PM 34.7873 -83.6733 341° North 413 475 37,000  Level FlightAware ADS-B
Tue 11:38:42 PM 34.8399 -83.6960 340° North 413 475 37,000  Level FlightAware ADS-B
Tue 11:39:14 PM 34.8971 -83.7206 341° North 412 474 37,000  Level FlightAware ADS-B
Tue 11:39:47 PM 34.9579 -83.7469 340° North 413 475 37,000  Level FlightAware ADS-B
Tue 11:40:18 PM 35.0131 -83.7707 341° North 412 474 37,000  Level FlightAware ADS-B
Tue 11:40:46 PM 35.0638 -83.7925 341° North 410 472 37,000  Level FlightAware ADS-B
Tue 11:41:16 PM 35.1175 -83.8158 340° North 409 471 37,000  Level FlightAware ADS-B
Tue 11:41:47 PM 35.1713 -83.8391 341° North 409 471 37,000  Level FlightAware ADS-B
Tue 11:42:17 PM 35.2263 -83.8628 341° North 407 468 37,000  Level FlightAware ADS-B
Tue 11:42:49 PM 35.2812 -83.8867 340° North 404 465 37,000  Level FlightAware ADS-B
Tue 11:43:19 PM 35.3341 -83.9099 340° North 400 460 37,000  Level FlightAware ADS-B
Tue 11:43:49 PM 35.3867 -83.9328 340° North 397 457 37,000  Level FlightAware ADS-B
Tue 11:44:20 PM 35.4399 -83.9561 340° North 395 455 37,000  Level FlightAware ADS-B
Tue 11:44:50 PM 35.4917 -83.9787 340° North 393 452 37,000  Level FlightAware ADS-B
Tue 11:45:21 PM 35.5439 -84.0016 340° North 392 451 37,000  Level FlightAware ADS-B
Tue 11:45:52 PM 35.5969 -84.0249 340° North 394 453 37,000  Level FlightAware ADS-B
Tue 11:46:24 PM 35.6529 -84.0495 340° North 394 453 37,000  Level FlightAware ADS-B
Tue 11:46:54 PM 35.7046 -84.0720 341° North 395 455 37,000  Level FlightAware ADS-B
Tue 11:47:25 PM 35.7577 -84.0954 340° North 395 455 37,000  Level FlightAware ADS-B
Tue 11:47:56 PM 35.8110 -84.1189 340° North 398 458 37,000  Level FlightAware ADS-B
Tue 11:48:33 PM 35.8747 -84.1471 340° North 400 460 37,000  Level FlightAware ADS-B
Tue 11:49:03 PM 35.9279 -84.1708 340° North 402 463 37,000  Level FlightAware ADS-B
Tue 11:49:35 PM 35.9830 -84.1951 340° North 403 464 37,000  Level FlightAware ADS-B
Tue 11:50:05 PM 36.0368 -84.2189 340° North 403 464 37,000  Level FlightAware ADS-B
Tue 11:50:37 PM 36.0925 -84.2436 340° North 404 465 37,000 -387 Level FlightAware ADS-B
Tue 11:51:07 PM 36.1454 -84.2671 340° North 402 463 36,600 -1,967 Descending FlightAware ADS-B
Tue 11:51:38 PM 36.1991 -84.2914 340° North 407 468 35,000 -3,934 Descending FlightAware ADS-B
Tue 11:52:08 PM 36.2544 -84.3157 340° North 432 497 32,600 -4,230 Descending FlightAware ADS-B
Tue 11:52:39 PM 36.3132 -84.3420 340° North 440 506 30,700 -2,459 Descending FlightAware ADS-B
Tue 11:53:09 PM 36.3702 -84.3676 340° North 421 484 30,100 -689 Descending FlightAware ADS-B
Tue 11:53:40 PM 36.4253 -84.3922 340° North 413 475 30,000 -98 Descending FlightAware ADS-B
Tue 11:54:10 PM 36.4803 -84.4170 340° North 413 475 30,000 -1,742 Level FlightAware ADS-B
Tue 11:54:42 PM 36.5380 -84.4429 340° North 425 489 28,200 -3,143 Descending FlightAware ADS-B
Tue 11:55:13 PM 36.5945 -84.4686 340° North 420 483 26,700 -2,419 Descending FlightAware ADS-B
Tue 11:55:44 PM 36.6501 -84.4934 340° North 402 463 25,700 -2,095 Descending FlightAware ADS-B
Tue 11:56:16 PM 36.7040 -84.5176 340° North 385 443 24,500 -1,839 Descending FlightAware ADS-B
Tue 11:56:46 PM 36.7531 -84.5400 340° North 364 419 23,800 -1,300 Descending FlightAware ADS-B
Tue 11:57:16 PM 36.8008 -84.5617 340° North 365 420 23,200 -1,279 Descending FlightAware ADS-B
Tue 11:57:47 PM 36.8497 -84.5837 340° North 368 423 22,500 -1,377 Descending FlightAware ADS-B
Tue 11:58:17 PM 36.8981 -84.6057 340° North 363 418 21,800 -1,400 Descending FlightAware ADS-B
Tue 11:58:47 PM 36.9454 -84.6273 340° North 359 413 21,100 -1,377 Descending FlightAware ADS-B
Tue 11:59:18 PM 36.9928 -84.6490 340° North 356 410 20,400 -1,258 Descending FlightAware ADS-B
Tue 11:59:49 PM 37.0398 -84.6703 340° North 351 404 19,800 -1,279 Descending FlightAware ADS-B
Wed 12:00:19 AM 37.0858 -84.6913 340° North 350 403 19,100 -1,400 Descending FlightAware ADS-B
Wed 12:00:49 AM 37.1323 -84.7126 340° North 348 400 18,400 -1,475 Descending FlightAware ADS-B
Wed 12:01:20 AM 37.1789 -84.7339 340° North 349 402 17,600 -1,905 Descending FlightAware ADS-B
Wed 12:01:52 AM 37.2276 -84.7560 340° North 345 397 16,400 -1,727 Descending FlightAware ADS-B
Wed 12:02:26 AM 37.2779 -84.7794 340° North 346 398 15,700 -1,271 Descending FlightAware ADS-B
Wed 12:03:50 AM 37.4020 -84.8370 340° North 335 386 13,900 -1,299 Descending FlightAware ADS-B
Wed 12:04:40 AM 37.4780 -84.8710 340° North 343 395 12,800 -1,286 Descending FlightAware ADS-B
Wed 12:05:28 AM 37.5480 -84.9040 340° North 333 383 11,800 -1,214 Descending FlightAware ADS-B
Wed 12:06:04 AM 37.6000 -84.9280 340° North 334 384 11,100 -1,067 Descending FlightAware ADS-B
Wed 12:06:58 AM 37.6720 -84.9790 331° Northwest 333 383 10,200 -846 Descending FlightAware ADS-B
Wed 12:07:22 AM 37.6970 -85.0120 314° West 311 358 10,000 -462 Descending FlightAware ADS-B
Wed 12:07:50 AM 37.7230 -85.0480 312° West 288 331 9,800 -429 Descending FlightAware ADS-B
Wed 12:08:18 AM 37.7470 -85.0810 313° West 266 306 9,600 -677 Descending FlightAware ADS-B
Wed 12:08:52 AM 37.7750 -85.1200 312° West 251 289 9,100 -1,100 Descending FlightAware ADS-B
Wed 12:09:18 AM 37.7950 -85.1470 313° West 251 289 8,500 -1,444 Descending FlightAware ADS-B
Wed 12:09:46 AM 37.8170 -85.1780 312° West 253 291 7,800 -1,474 Descending FlightAware ADS-B
Wed 12:10:15 AM 37.8340 -85.2130 302° West 264 304 7,100 -1,385 Descending FlightAware ADS-B
Wed 12:10:38 AM 37.8310 -85.2480 264° West 269 310 6,600 -1,250 Descending FlightAware ADS-B
Wed 12:11:03 AM 37.8270 -85.2850 262° West 266 306 6,100 -1,424 Descending FlightAware ADS-B
Wed 12:11:37 AM 37.8220 -85.3400 263° West 266 306 5,200 -1,406 Descending FlightAware ADS-B
Wed 12:12:07 AM 37.8040 -85.3810 241° Southwest 271 312 4,600 -1,091 Descending FlightAware ADS-B
Wed 12:12:21 AM 37.7950 -85.4020 242° Southwest 263 303 4,400 -783 Descending FlightAware ADS-B
Wed 12:12:53 AM 37.7770 -85.4420 240° Southwest 254 292 4,000 -947 Descending FlightAware ADS-B
Wed 12:13:18 AM 37.7630 -85.4730 240° Southwest 251 289 3,500 -1,309 Descending FlightAware ADS-B
Wed 12:13:48 AM 37.7470 -85.5100 241° Southwest 251 289 2,800 -724 Descending FlightAware ADS-B
Wed 12:14:16 AM 37.7330 -85.5400 239° Southwest 251 289 2,800 -316 Level FlightAware ADS-B
Wed 12:15:23 AM 37.7750 -85.5910 316° Northwest 178 205 2,300 -326 Descending FlightAware ADS-B
Wed 12:15:48 AM 37.7930 -85.6000 338° Northwest 166 191 2,300  Level FlightAware ADS-B
Wed 12:16:08 AM 37.8100 -85.6050 347° North 166 191 2,300  Level FlightAware ADS-B
Wed 12:16:43 AM 37.8350 -85.6120 348° North 165 190 2,300  Level FlightAware ADS-B
Wed 12:17:08 AM 37.8540 -85.6180 346° North 167 192 2,300  Level FlightAware ADS-B
Wed 12:17:38 AM 37.8770 -85.6250 346° North 166 191 2,300  Level FlightAware ADS-B
Wed 12:17:58 AM 37.8910 -85.6310 341° North 166 191 2,300  Level FlightAware ADS-B
Wed 12:18:18 AM 37.9040 -85.6350 346° North 166 191 2,300  Level FlightAware ADS-B
Wed 12:18:48 AM 37.9270 -85.6430 345° North 167 192 2,300  Level FlightAware ADS-B
Wed 12:19:18 AM 37.9500 -85.6510 345° North 167 192 2,300  Level FlightAware ADS-B
Wed 12:19:53 AM 37.9780 -85.6600 346° North 166 191 2,300  Level FlightAware ADS-B
Wed 12:20:13 AM 37.9910 -85.6650 343° North 166 191 2,300  Level FlightAware ADS-B
Wed 12:20:48 AM 38.0170 -85.6730 346° North 167 192 2,300  Level FlightAware ADS-B
Wed 12:21:18 AM 38.0370 -85.6800 345° North 166 191 2,300  Level FlightAware ADS-B
Wed 12:21:38 AM 38.0540 -85.6860 344° North 150 173 2,300 -480 Level FlightAware ADS-B
Wed 12:22:08 AM 38.0730 -85.6930 344° North 142 163 1,900 -800 Descending FlightAware ADS-B
Wed 12:22:23 AM 38.0810 -85.6950 349° North 137 158 1,700 -875 Descending FlightAware ADS-B
Wed 12:22:56 AM 38.1010 -85.7020 345° North 122 140 1,200 -750 Descending FlightAware ADS-B
Wed 12:23:19 AM 38.1140 -85.7060 346° North 121 139 1,000 -655 Descending FlightAware ADS-B
Wed 12:23:51 AM 38.1310 -85.7120 344° North 122 140 600 -750 Descending FlightAware ADS-B
Wed 12:24:23 AM 38.1490 -85.7180 345° North 127 146 200 -750 Descending FlightAware ADS-B
Wed 12:24:51 AM 38.1650 -85.7240 344° North 135 155 -429 Descending FlightAware ADS-B
Wed 12:25:11 AM 38.1770 -85.7280 345° North 100 115  Level FlightAware ADS-B

Login

Don't have an account? Register now (free) for customized features, flight alerts, and more!